Time;durP1;ratioP1;P1;durP2;ratioP2;P2;SDS_P1;SDS_P2;PMS_P1;PMS_P2;Temp;Humidity;BMP_temperature;BMP_pressure;BME280_temperature;BME280_humidity;BME280_pressure;Samples;Min_cycle;Max_cycle;Signal;HPM_P1;HPM_P2
2022/01/15 00:00:28;;;;;;;7.55;3.95;;;8.10;99.90;;;;;;5064011;28;20055;-62
2022/01/15 00:02:55;;;;;;;8.75;4.75;;;8.10;99.90;;;;;;5064326;27;20060;-62
2022/01/15 00:05:23;;;;;;;7.45;3.63;;;8.10;99.90;;;;;;5063643;28;20700;-62
2022/01/15 00:07:50;;;;;;;6.38;3.53;;;8.10;99.90;;;;;;5063871;28;20048;-62
2022/01/15 00:10:20;;;;;;;7.00;4.32;;;8.10;99.90;;;;;;5063305;28;20049;-62
2022/01/15 00:12:46;;;;;;;6.22;3.65;;;8.10;99.90;;;;;;5063547;28;20063;-62
2022/01/15 00:15:20;;;;;;;7.65;4.40;;;8.10;99.90;;;;;;5063865;28;20055;-62
2022/01/15 00:17:50;;;;;;;9.02;4.57;;;8.10;99.90;;;;;;5064925;28;20058;-62
2022/01/15 00:20:20;;;;;;;11.45;5.35;;;8.10;99.90;;;;;;5064696;27;20283;-62
2022/01/15 00:22:47;;;;;;;7.60;4.38;;;8.10;99.90;;;;;;5064096;28;20060;-62
2022/01/15 00:25:15;;;;;;;9.05;5.07;;;8.10;99.90;;;;;;5063417;28;20053;-62
2022/01/15 00:27:43;;;;;;;10.00;4.57;;;8.10;99.90;;;;;;5066993;28;21237;-62
2022/01/15 00:30:11;;;;;;;7.38;3.60;;;8.10;99.90;;;;;;5067472;28;20522;-62
2022/01/15 00:32:40;;;;;;;7.20;3.47;;;8.10;99.90;;;;;;5066488;28;20049;-63
2022/01/15 00:35:08;;;;;;;7.05;3.92;;;8.00;99.90;;;;;;5067375;28;20049;-63
2022/01/15 00:37:35;;;;;;;7.43;3.97;;;8.00;99.90;;;;;;5068220;28;20055;-63
2022/01/15 00:40:05;;;;;;;7.03;3.67;;;8.00;99.90;;;;;;5067213;28;20053;-63
2022/01/15 00:42:34;;;;;;;8.85;3.70;;;8.00;99.90;;;;;;5068572;28;20053;-63
2022/01/15 00:45:02;;;;;;;5.82;3.33;;;8.00;99.90;;;;;;5067387;28;20059;-62
2022/01/15 00:47:31;;;;;;;6.60;3.35;;;7.90;99.90;;;;;;5066459;28;20052;-63
2022/01/15 00:49:59;;;;;;;6.70;3.35;;;7.90;99.90;;;;;;5067217;28;20059;-63
2022/01/15 00:52:26;;;;;;;6.25;3.53;;;7.90;99.90;;;;;;5067695;28;20539;-63
2022/01/15 00:54:53;;;;;;;6.88;3.88;;;7.90;99.90;;;;;;5067183;28;20060;-63
2022/01/15 00:57:20;;;;;;;5.47;2.92;;;7.90;99.90;;;;;;5067042;27;20049;-63
2022/01/15 00:59:47;;;;;;;5.82;3.35;;;7.90;99.90;;;;;;5064987;27;20049;-63
2022/01/15 01:02:14;;;;;;;6.53;3.20;;;7.90;99.90;;;;;;5065016;28;20056;-63
2022/01/15 01:04:42;;;;;;;6.38;3.42;;;7.80;99.90;;;;;;5066505;28;20166;-63
2022/01/15 01:07:10;;;;;;;6.38;3.35;;;7.80;99.90;;;;;;5065927;28;20055;-63
2022/01/15 01:09:53;;;;;;;6.00;2.90;;;7.80;99.90;;;;;;5065629;28;20141;-63
2022/01/15 01:12:31;;;;;;;4.75;2.45;;;7.90;99.90;;;;;;5067377;28;20057;-63
2022/01/15 01:20:38;;;;;;;5.40;2.97;;;7.80;99.90;;;;;;5066718;28;20080;-63
2022/01/15 01:23:05;;;;;;;4.93;2.50;;;7.80;99.90;;;;;;5063522;28;20590;-63
2022/01/15 01:25:37;;;;;;;4.82;2.35;;;7.80;99.90;;;;;;5065906;28;20064;-63
2022/01/15 01:28:09;;;;;;;4.07;2.20;;;7.80;99.90;;;;;;5065446;27;20949;-63
2022/01/15 01:30:42;;;;;;;4.65;2.33;;;7.90;99.90;;;;;;5064596;28;20123;-63
2022/01/15 01:33:31;;;;;;;4.07;1.80;;;7.90;99.80;;;;;;5066087;28;20053;-63
2022/01/15 01:36:10;;;;;;;4.20;1.90;;;7.90;99.80;;;;;;5066012;28;20970;-63
2022/01/15 01:38:44;;;;;;;4.40;2.17;;;7.80;99.70;;;;;;5066565;28;20063;-63
2022/01/15 01:41:15;;;;;;;4.05;1.95;;;7.80;99.70;;;;;;5066561;28;20056;-63
2022/01/15 01:43:47;;;;;;;4.40;2.05;;;7.80;99.70;;;;;;5064843;28;20059;-63
2022/01/15 01:46:33;;;;;;;4.40;2.15;;;7.80;99.80;;;;;;5066691;28;20055;-63
2022/01/15 01:49:01;;;;;;;5.32;2.25;;;7.80;99.70;;;;;;5065772;28;20214;-63
2022/01/15 01:51:31;;;;;;;3.72;1.70;;;7.80;99.70;;;;;;5065255;28;20096;-63
2022/01/15 01:54:00;;;;;;;4.43;2.13;;;7.70;99.60;;;;;;5066268;28;22109;-63
2022/01/15 01:56:27;;;;;;;4.90;2.13;;;7.70;99.70;;;;;;5066575;27;20049;-63
2022/01/15 01:58:54;;;;;;;4.10;1.75;;;7.70;99.70;;;;;;5064232;28;20060;-63
2022/01/15 02:01:21;;;;;;;4.28;1.60;;;7.70;99.70;;;;;;5066542;28;20048;-63
2022/01/15 02:03:48;;;;;;;4.30;1.80;;;7.60;99.60;;;;;;5065356;28;20048;-63
2022/01/15 02:06:17;;;;;;;4.10;1.70;;;7.60;99.90;;;;;;5065965;27;20060;-63
2022/01/15 02:08:44;;;;;;;4.43;1.65;;;7.60;99.60;;;;;;5065968;28;20132;-63
2022/01/15 02:11:12;;;;;;;4.35;1.77;;;7.60;99.60;;;;;;5065754;28;20459;-63
2022/01/15 02:13:41;;;;;;;3.03;1.58;;;7.60;99.60;;;;;;5065610;27;20044;-63
2022/01/15 02:16:08;;;;;;;2.83;1.30;;;7.50;99.70;;;;;;5064840;28;20051;-63
2022/01/15 02:18:36;;;;;;;3.42;1.42;;;7.50;99.50;;;;;;5066363;28;20056;-63
2022/01/15 02:23:51;;;;;;;3.90;1.15;;;7.50;99.60;;;;;;5065387;28;20036;-63
2022/01/15 02:26:20;;;;;;;2.95;1.30;;;7.50;99.50;;;;;;5064648;28;20055;-63
2022/01/15 02:28:52;;;;;;;4.38;1.83;;;7.50;99.50;;;;;;5066280;28;20053;-63
2022/01/15 02:31:20;;;;;;;3.75;1.52;;;7.50;99.50;;;;;;5066151;28;20056;-63
2022/01/15 02:33:49;;;;;;;2.40;1.10;;;7.60;99.60;;;;;;5064106;28;20059;-63
2022/01/15 02:36:20;;;;;;;4.13;1.70;;;7.60;99.50;;;;;;5065431;27;20052;-63
2022/01/15 02:38:47;;;;;;;3.10;1.35;;;7.60;99.50;;;;;;5064973;28;20049;-63
2022/01/15 02:41:14;;;;;;;3.78;1.27;;;7.60;99.50;;;;;;5064877;28;20048;-63
2022/01/15 02:43:41;;;;;;;3.47;1.48;;;7.60;99.50;;;;;;5065206;28;20056;-63
2022/01/15 02:46:22;;;;;;;4.55;1.55;;;7.60;99.60;;;;;;5065688;28;20048;-63
2022/01/15 02:48:52;;;;;;;3.85;1.75;;;7.60;99.60;;;;;;5064904;27;20076;-63
2022/01/15 02:51:21;;;;;;;4.18;1.60;;;7.60;99.60;;;;;;5064624;28;20049;-63
2022/01/15 02:53:54;;;;;;;4.15;1.92;;;7.60;99.60;;;;;;5065395;27;20053;-63
2022/01/15 02:56:22;;;;;;;7.10;1.98;;;7.60;99.60;;;;;;5065010;28;20051;-63
2022/01/15 02:58:49;;;;;;;4.13;1.83;;;7.60;99.60;;;;;;5064529;28;20053;-63
2022/01/15 03:01:16;;;;;;;4.50;1.73;;;7.70;99.50;;;;;;5065220;28;20056;-63
2022/01/15 03:03:43;;;;;;;4.07;1.90;;;7.70;99.50;;;;;;5064821;28;20057;-63
2022/01/15 03:06:11;;;;;;;3.67;1.40;;;7.70;99.50;;;;;;5065697;28;20059;-63
2022/01/15 03:08:39;;;;;;;5.65;2.25;;;7.70;99.50;;;;;;5064676;28;20055;-62
2022/01/15 03:11:07;;;;;;;5.32;1.98;;;7.70;99.50;;;;;;5065707;28;20052;-62
2022/01/15 03:13:34;;;;;;;5.45;1.90;;;7.60;99.50;;;;;;5065479;28;20063;-63
2022/01/15 03:16:01;;;;;;;4.65;2.22;;;7.60;99.40;;;;;;5063980;28;20077;-63
2022/01/15 03:18:28;;;;;;;4.53;2.00;;;7.70;99.50;;;;;;5065647;28;20048;-63
2022/01/15 03:20:55;;;;;;;4.57;1.90;;;7.70;99.50;;;;;;5065595;28;20056;-63
2022/01/15 03:23:22;;;;;;;3.67;1.60;;;7.60;99.40;;;;;;5063927;28;20474;-63
2022/01/15 03:25:50;;;;;;;5.53;1.95;;;7.70;99.50;;;;;;5065320;28;20049;-62
2022/01/15 03:28:17;;;;;;;5.22;1.85;;;7.70;99.40;;;;;;5065388;28;20055;-62
2022/01/15 03:30:44;;;;;;;5.63;2.50;;;7.70;99.40;;;;;;5064612;28;20049;-63
2022/01/15 03:33:11;;;;;;;5.70;2.10;;;7.70;99.50;;;;;;5065466;28;20051;-63
2022/01/15 03:35:38;;;;;;;5.22;2.17;;;7.70;99.50;;;;;;5065061;27;20056;-63
2022/01/15 03:38:06;;;;;;;4.53;2.10;;;7.70;99.40;;;;;;5064202;28;20049;-63
2022/01/15 03:40:34;;;;;;;4.65;2.05;;;7.70;99.70;;;;;;5064884;28;20049;-63
2022/01/15 03:43:03;;;;;;;6.57;2.08;;;7.70;99.40;;;;;;5064965;27;20184;-63
2022/01/15 03:45:30;;;;;;;5.22;2.65;;;7.60;99.40;;;;;;5063784;28;20057;-63
2022/01/15 03:47:57;;;;;;;5.85;1.95;;;7.60;99.30;;;;;;5063857;28;20063;-62
2022/01/15 03:50:25;;;;;;;3.75;1.90;;;7.60;99.40;;;;;;5063398;28;20511;-63
2022/01/15 03:52:53;;;;;;;4.18;1.70;;;7.50;99.40;;;;;;5062191;28;20056;-63
2022/01/15 03:55:21;;;;;;;3.50;1.50;;;7.50;99.40;;;;;;5063405;28;20053;-63
2022/01/15 03:57:48;;;;;;;2.90;1.30;;;7.50;99.40;;;;;;5063440;28;20056;-63
2022/01/15 04:00:19;;;;;;;4.20;1.60;;;7.50;99.40;;;;;;5063334;28;20049;-63
2022/01/15 04:02:46;;;;;;;3.17;1.58;;;7.50;99.50;;;;;;5067747;28;20053;-63
2022/01/15 04:05:13;;;;;;;3.97;1.75;;;7.50;99.60;;;;;;5067461;28;20059;-63
2022/01/15 04:07:40;;;;;;;4.50;1.80;;;7.50;99.60;;;;;;5068969;28;20053;-63
2022/01/15 04:10:09;;;;;;;4.32;1.73;;;7.50;99.60;;;;;;5066793;28;20060;-63
2022/01/15 04:12:36;;;;;;;4.68;1.73;;;7.50;99.60;;;;;;5066662;28;20060;-63
2022/01/15 04:15:05;;;;;;;5.70;2.38;;;7.50;99.60;;;;;;5068152;28;20056;-63
2022/01/15 04:17:33;;;;;;;4.75;1.95;;;7.50;99.60;;;;;;5068489;28;20052;-63
2022/01/15 04:20:00;;;;;;;5.30;2.00;;;7.40;99.60;;;;;;5067279;28;20201;-63
2022/01/15 04:22:30;;;;;;;4.97;1.55;;;7.50;99.60;;;;;;5068125;28;20060;-63
2022/01/15 04:24:57;;;;;;;4.57;1.88;;;7.50;99.60;;;;;;5067824;28;20528;-63
2022/01/15 04:27:23;;;;;;;4.32;1.80;;;7.40;99.50;;;;;;5067321;28;20047;-63
2022/01/15 04:29:51;;;;;;;3.85;1.58;;;7.40;99.60;;;;;;5067769;28;20136;-63
2022/01/15 04:32:18;;;;;;;6.60;1.73;;;7.40;99.60;;;;;;5068120;28;20213;-63
2022/01/15 04:34:47;;;;;;;4.93;1.85;;;7.40;99.60;;;;;;5067211;28;20140;-63
2022/01/15 04:37:18;;;;;;;4.88;1.83;;;7.50;99.60;;;;;;5067343;28;20048;-63
2022/01/15 04:39:45;;;;;;;3.70;1.50;;;7.40;99.60;;;;;;5067449;28;20053;-63
2022/01/15 04:42:15;;;;;;;3.22;1.30;;;7.40;99.60;;;;;;5066533;27;20115;-63
2022/01/15 04:44:42;;;;;;;3.92;1.55;;;7.40;99.60;;;;;;5067894;28;20769;-63
2022/01/15 04:47:09;;;;;;;4.18;1.75;;;7.40;99.60;;;;;;5066999;28;20775;-63
2022/01/15 04:49:36;;;;;;;4.53;2.00;;;7.40;99.60;;;;;;5066741;28;20139;-62
2022/01/15 04:52:05;;;;;;;5.15;1.88;;;7.40;99.60;;;;;;5067894;28;20066;-63
2022/01/15 04:54:32;;;;;;;4.32;1.63;;;7.40;99.50;;;;;;5067233;28;20056;-63
2022/01/15 04:56:59;;;;;;;4.55;1.95;;;7.50;99.60;;;;;;5067235;28;20057;-63
2022/01/15 04:59:25;;;;;;;4.95;1.90;;;7.40;99.60;;;;;;5066259;28;20196;-63
2022/01/15 05:01:52;;;;;;;4.80;1.90;;;7.50;99.50;;;;;;5066778;28;20049;-63
2022/01/15 05:04:19;;;;;;;5.15;1.85;;;7.50;99.50;;;;;;5066813;28;20055;-63
2022/01/15 05:06:46;;;;;;;4.53;2.05;;;7.50;99.50;;;;;;5067037;28;20049;-63
2022/01/15 05:09:15;;;;;;;5.50;1.95;;;7.50;99.50;;;;;;5064830;28;20055;-63
2022/01/15 05:11:46;;;;;;;4.00;1.70;;;7.50;99.50;;;;;;5067383;28;20060;-63
2022/01/15 05:14:15;;;;;;;5.30;2.22;;;7.50;99.50;;;;;;5066515;27;20056;-63
2022/01/15 05:16:42;;;;;;;6.00;2.03;;;7.50;99.40;;;;;;5066201;28;20987;-63
2022/01/15 05:19:09;;;;;;;4.75;1.92;;;7.50;99.40;;;;;;5066787;28;20048;-63
2022/01/15 05:21:36;;;;;;;5.97;2.25;;;7.50;99.40;;;;;;5066962;28;20058;-63
2022/01/15 05:24:04;;;;;;;4.68;1.90;;;7.50;99.40;;;;;;5065519;28;20060;-63
2022/01/15 05:26:32;;;;;;;5.47;2.00;;;7.50;99.40;;;;;;5067395;28;20057;-63
2022/01/15 05:28:59;;;;;;;5.88;2.78;;;7.50;99.50;;;;;;5066247;28;20045;-63
2022/01/15 05:31:26;;;;;;;7.25;2.55;;;7.60;99.50;;;;;;5065976;28;20055;-63
2022/01/15 05:33:53;;;;;;;5.00;2.20;;;7.50;99.50;;;;;;5066482;28;20049;-63
2022/01/15 05:36:21;;;;;;;5.88;2.30;;;7.50;99.40;;;;;;5066263;28;21375;-63
2022/01/15 05:38:48;;;;;;;6.90;2.25;;;7.50;99.40;;;;;;5065020;28;20053;-63
2022/01/15 05:41:15;;;;;;;5.80;2.92;;;7.50;99.50;;;;;;5066069;28;20130;-63
2022/01/15 05:43:43;;;;;;;5.97;2.50;;;7.50;99.50;;;;;;5065829;28;20060;-63
2022/01/15 05:46:10;;;;;;;5.25;2.58;;;7.50;99.40;;;;;;5066872;28;20504;-63
2022/01/15 05:48:37;;;;;;;5.50;2.50;;;7.50;99.40;;;;;;5066021;28;20052;-63
2022/01/15 05:51:04;;;;;;;6.68;3.05;;;7.50;99.40;;;;;;5065779;28;20052;-63
2022/01/15 05:53:31;;;;;;;6.60;3.17;;;7.50;99.40;;;;;;5067213;28;20059;-63
2022/01/15 05:55:58;;;;;;;5.13;2.55;;;7.50;99.50;;;;;;5066404;28;20055;-63
2022/01/15 05:58:25;;;;;;;7.50;3.20;;;7.50;99.70;;;;;;5065747;28;20083;-62
2022/01/15 06:00:53;;;;;;;8.38;3.60;;;7.50;99.50;;;;;;5065056;28;20052;-63
2022/01/15 06:03:20;;;;;;;7.57;3.08;;;7.40;99.50;;;;;;5066346;28;20053;-63
2022/01/15 06:05:47;;;;;;;7.13;3.38;;;7.40;99.50;;;;;;5066217;28;20049;-62
2022/01/15 06:08:13;;;;;;;5.85;2.70;;;7.40;99.50;;;;;;5065457;27;20055;-63
2022/01/15 06:10:41;;;;;;;7.18;3.15;;;7.40;99.50;;;;;;5066537;28;20171;-63
2022/01/15 06:13:07;;;;;;;9.02;3.05;;;7.40;99.60;;;;;;5065687;28;20061;-62
2022/01/15 06:15:34;;;;;;;8.88;3.30;;;7.40;99.70;;;;;;5064887;28;20051;-63
2022/01/15 06:18:03;;;;;;;5.50;2.80;;;7.40;99.70;;;;;;5063280;28;20332;-63
2022/01/15 06:20:30;;;;;;;6.95;3.20;;;7.40;99.70;;;;;;5063588;28;20049;-63
2022/01/15 06:22:57;;;;;;;7.43;3.00;;;7.40;99.70;;;;;;5064996;28;20057;-63
2022/01/15 06:25:24;;;;;;;7.63;3.67;;;7.40;99.60;;;;;;5062812;27;20052;-63
2022/01/15 06:27:51;;;;;;;10.00;4.03;;;7.40;99.50;;;;;;5065651;28;20051;-62
2022/01/15 06:30:18;;;;;;;7.53;3.55;;;7.40;99.80;;;;;;5065143;28;20104;-63
2022/01/15 06:32:44;;;;;;;7.55;3.53;;;7.40;99.60;;;;;;5064998;28;20051;-63
2022/01/15 06:35:16;;;;;;;7.18;3.35;;;7.40;99.50;;;;;;5065096;27;21304;-63
2022/01/15 06:37:43;;;;;;;6.70;3.15;;;7.40;99.50;;;;;;5065779;27;20053;-63
2022/01/15 06:40:11;;;;;;;7.55;3.58;;;7.40;99.40;;;;;;5064703;28;20802;-63
2022/01/15 06:42:38;;;;;;;8.05;3.05;;;7.50;99.30;;;;;;5065475;28;20049;-63
2022/01/15 06:45:06;;;;;;;7.25;3.28;;;7.50;99.30;;;;;;5066367;28;20109;-63
2022/01/15 06:47:33;;;;;;;9.13;3.92;;;7.50;99.20;;;;;;5064812;28;20056;-63
2022/01/15 06:50:04;;;;;;;7.30;3.90;;;7.40;99.10;;;;;;5065234;28;20053;-63
2022/01/15 06:52:33;;;;;;;9.65;4.28;;;7.40;99.20;;;;;;5065542;28;20059;-63
2022/01/15 06:54:59;;;;;;;8.63;4.13;;;7.30;99.30;;;;;;5064217;27;20053;-63
2022/01/15 06:57:27;;;;;;;7.50;4.13;;;7.30;99.40;;;;;;5065495;28;20049;-63
2022/01/15 06:59:54;;;;;;;8.15;3.72;;;7.20;99.40;;;;;;5065213;28;20049;-63
2022/01/15 07:02:21;;;;;;;7.85;3.70;;;7.20;99.50;;;;;;5065476;28;20764;-63
2022/01/15 07:04:48;;;;;;;6.40;3.03;;;7.20;99.40;;;;;;5065112;28;20045;-63
2022/01/15 07:07:15;;;;;;;7.60;3.53;;;7.10;99.40;;;;;;5066578;28;20109;-63
2022/01/15 07:09:43;;;;;;;6.00;2.67;;;7.20;99.30;;;;;;5065021;28;20056;-63
2022/01/15 07:12:11;;;;;;;5.93;3.10;;;7.20;99.30;;;;;;5064907;28;20049;-63
2022/01/15 07:14:38;;;;;;;6.75;2.95;;;7.20;99.30;;;;;;5064465;28;20052;-63
2022/01/15 07:17:05;;;;;;;5.38;2.75;;;7.30;99.10;;;;;;5066081;28;20075;-63
2022/01/15 07:19:32;;;;;;;4.80;2.13;;;7.30;99.00;;;;;;5065761;28;20163;-63
2022/01/15 07:21:59;;;;;;;5.82;2.67;;;7.30;98.60;;;;;;5064670;28;20056;-63
2022/01/15 07:24:26;;;;;;;4.07;2.17;;;7.30;98.60;;;;;;5064780;28;20059;-62
2022/01/15 07:26:54;;;;;;;5.15;2.00;;;7.30;98.70;;;;;;5065598;28;20049;-62
2022/01/15 07:29:23;;;;;;;4.25;2.03;;;7.30;98.60;;;;;;5012156;28;20064;-63
2022/01/15 07:31:51;;;;;;;5.05;2.30;;;7.30;98.50;;;;;;5063074;28;20080;-62
2022/01/15 07:34:19;;;;;;;4.97;2.38;;;7.30;98.50;;;;;;5065070;28;20526;-62
2022/01/15 07:36:51;;;;;;;5.38;2.30;;;7.20;98.50;;;;;;5063590;28;20056;-62
2022/01/15 07:39:18;;;;;;;4.65;2.30;;;7.20;98.80;;;;;;5064554;28;20045;-62
2022/01/15 07:41:45;;;;;;;4.57;2.10;;;7.20;98.60;;;;;;5064896;28;20860;-62
2022/01/15 07:44:13;;;;;;;5.28;2.50;;;7.30;98.60;;;;;;5064254;28;20067;-62
2022/01/15 07:46:40;;;;;;;5.07;2.75;;;7.30;98.60;;;;;;5064477;28;20053;-62
2022/01/15 07:49:07;;;;;;;6.38;2.38;;;7.30;98.60;;;;;;5062906;28;20049;-62
2022/01/15 07:51:34;;;;;;;5.85;2.97;;;7.40;98.60;;;;;;5064873;27;20053;-62
2022/01/15 07:54:00;;;;;;;5.82;2.65;;;7.40;98.50;;;;;;5064009;28;20136;-62
2022/01/15 07:56:27;;;;;;;6.43;3.10;;;7.50;98.40;;;;;;5063139;28;20064;-62
2022/01/15 07:58:54;;;;;;;6.43;2.50;;;7.40;98.30;;;;;;5065078;28;20064;-62
2022/01/15 08:01:22;;;;;;;5.65;2.90;;;7.50;98.30;;;;;;5064252;28;20048;-62
2022/01/15 08:03:49;;;;;;;5.53;2.85;;;7.40;98.20;;;;;;5064220;28;20045;-62
2022/01/15 08:06:16;;;;;;;5.93;3.10;;;7.40;98.30;;;;;;5064455;28;20053;-62
2022/01/15 08:08:43;;;;;;;6.55;3.45;;;7.40;98.30;;;;;;5064787;28;20056;-62
2022/01/15 08:11:10;;;;;;;5.65;3.05;;;7.40;98.20;;;;;;5064370;28;20045;-63
2022/01/15 08:13:37;;;;;;;7.28;2.95;;;7.40;98.20;;;;;;5064316;28;20695;-62
2022/01/15 08:16:05;;;;;;;5.40;2.75;;;7.40;98.10;;;;;;5064509;28;20554;-62
2022/01/15 08:18:34;;;;;;;6.43;3.20;;;7.50;98.00;;;;;;5064238;27;20045;-62
2022/01/15 08:21:03;;;;;;;6.90;2.80;;;7.50;97.80;;;;;;5063404;28;20059;-62
2022/01/15 08:23:30;;;;;;;6.75;2.92;;;7.60;97.70;;;;;;5063936;28;20060;-63
2022/01/15 08:25:58;;;;;;;6.38;3.10;;;7.60;97.70;;;;;;5063777;28;20043;-63
2022/01/15 08:28:25;;;;;;;6.13;3.25;;;7.60;97.60;;;;;;5064452;28;20607;-62
2022/01/15 08:30:52;;;;;;;6.53;2.75;;;7.50;97.60;;;;;;5063354;28;20045;-62
2022/01/15 08:33:19;;;;;;;6.20;3.03;;;7.60;97.30;;;;;;5064324;28;20059;-62
2022/01/15 08:35:47;;;;;;;6.60;3.28;;;7.60;97.20;;;;;;5063989;27;20044;-62
2022/01/15 08:38:14;;;;;;;7.05;3.63;;;7.60;97.10;;;;;;5063524;28;20053;-62
2022/01/15 08:40:42;;;;;;;7.15;3.33;;;7.50;97.10;;;;;;5063409;28;20053;-63
2022/01/15 08:43:09;;;;;;;7.88;4.30;;;7.50;97.00;;;;;;5062808;27;21380;-62
2022/01/15 08:45:38;;;;;;;7.25;3.88;;;7.50;96.70;;;;;;5062590;28;20045;-63
2022/01/15 08:48:07;;;;;;;7.38;3.88;;;7.50;96.80;;;;;;5064749;27;20052;-62
2022/01/15 08:50:34;;;;;;;8.90;4.13;;;7.40;96.70;;;;;;5066137;28;20049;-62
2022/01/15 08:53:04;;;;;;;8.98;4.45;;;7.50;96.80;;;;;;5066975;28;20103;-63
2022/01/15 08:55:32;;;;;;;8.73;5.00;;;7.40;96.70;;;;;;5067311;28;20203;-62
2022/01/15 08:58:00;;;;;;;8.38;4.50;;;7.40;96.70;;;;;;5066540;28;20059;-62
2022/01/15 09:00:28;;;;;;;8.00;4.03;;;7.30;96.90;;;;;;5065572;28;20047;-63
2022/01/15 09:02:55;;;;;;;7.10;3.03;;;7.30;96.90;;;;;;5067137;28;20139;-62
2022/01/15 09:05:23;;;;;;;6.95;2.95;;;7.40;96.80;;;;;;5065776;28;20057;-62
2022/01/15 09:07:50;;;;;;;6.90;3.78;;;7.40;96.60;;;;;;5066317;27;20064;-62
2022/01/15 09:10:19;;;;;;;6.30;3.25;;;7.40;96.40;;;;;;5064965;28;20052;-63
2022/01/15 09:12:45;;;;;;;5.63;3.00;;;7.40;96.40;;;;;;5064748;28;20049;-62
2022/01/15 09:15:14;;;;;;;5.47;2.60;;;7.50;96.30;;;;;;5067172;28;20045;-62
2022/01/15 09:17:41;;;;;;;6.70;3.42;;;7.50;96.30;;;;;;5065333;28;20053;-63
2022/01/15 09:20:09;;;;;;;4.88;2.50;;;7.40;96.10;;;;;;5065863;28;20052;-63
2022/01/15 09:22:36;;;;;;;5.47;2.90;;;7.40;96.20;;;;;;5067205;28;20135;-63
2022/01/15 09:25:04;;;;;;;5.40;2.58;;;7.50;96.30;;;;;;5066760;28;20566;-63
2022/01/15 09:30:16;;;;;;;5.20;2.47;;;7.40;96.40;;;;;;5066484;28;20076;-62
2022/01/15 09:32:46;;;;;;;5.82;3.22;;;7.50;96.40;;;;;;5065999;28;20752;-63
2022/01/15 09:35:14;;;;;;;5.70;2.75;;;7.50;96.40;;;;;;5066729;28;20053;-63
2022/01/15 09:37:41;;;;;;;5.28;2.75;;;7.50;96.40;;;;;;5066132;27;20071;-62
2022/01/15 09:40:10;;;;;;;5.53;2.78;;;7.50;96.30;;;;;;5065049;28;20132;-62
2022/01/15 09:42:40;;;;;;;6.15;3.30;;;7.50;96.20;;;;;;5067040;28;20052;-62
2022/01/15 09:45:09;;;;;;;8.35;3.65;;;7.40;96.30;;;;;;5066500;28;20534;-63
2022/01/15 09:47:37;;;;;;;6.63;3.58;;;7.40;96.40;;;;;;5065313;28;20053;-62
2022/01/15 09:50:06;;;;;;;7.47;3.92;;;7.30;96.60;;;;;;5066748;28;20059;-62
2022/01/15 09:52:33;;;;;;;9.55;4.43;;;7.20;96.90;;;;;;5066322;28;20063;-62
2022/01/15 09:55:00;;;;;;;9.00;4.38;;;7.10;97.00;;;;;;5065678;28;20053;-63
2022/01/15 09:57:27;;;;;;;10.85;5.25;;;7.10;97.10;;;;;;5065797;28;22282;-63
2022/01/15 09:59:56;;;;;;;8.10;4.28;;;7.00;97.30;;;;;;5064524;27;20052;-63
2022/01/15 10:02:22;;;;;;;8.68;4.72;;;6.90;97.40;;;;;;5065457;28;20052;-62
2022/01/15 10:04:49;;;;;;;8.30;4.57;;;7.00;97.70;;;;;;5065130;28;20049;-62
2022/01/15 10:07:19;;;;;;;10.52;5.07;;;7.00;97.80;;;;;;5065859;28;20052;-62
2022/01/15 10:09:48;;;;;;;8.80;4.95;;;7.00;97.90;;;;;;5066080;28;20128;-62
2022/01/15 10:12:26;;;;;;;10.15;5.25;;;6.90;98.10;;;;;;5065393;28;20051;-63
2022/01/15 10:14:59;;;;;;;9.77;5.68;;;6.90;98.20;;;;;;5066294;28;20045;-62
2022/01/15 10:17:27;;;;;;;12.30;6.55;;;6.90;98.20;;;;;;5065287;27;20064;-62
2022/01/15 10:19:57;;;;;;;11.38;6.07;;;6.80;98.40;;;;;;5065922;28;20053;-62
2022/01/15 10:22:26;;;;;;;12.13;6.25;;;6.80;98.50;;;;;;5065802;28;20467;-62
2022/01/15 10:24:58;;;;;;;11.40;6.45;;;6.80;98.50;;;;;;5064423;28;20167;-62
2022/01/15 10:27:29;;;;;;;12.68;6.72;;;6.80;98.50;;;;;;5064570;28;20155;-62
2022/01/15 10:30:03;;;;;;;9.23;5.03;;;6.80;98.50;;;;;;5066043;28;20139;-62
2022/01/15 10:32:32;;;;;;;10.77;6.03;;;6.80;98.60;;;;;;5065724;28;20049;-62
2022/01/15 10:35:00;;;;;;;10.40;5.78;;;6.90;98.50;;;;;;5065720;27;20148;-62
2022/01/15 10:37:34;;;;;;;11.23;6.43;;;6.90;98.40;;;;;;5065466;28;20053;-62
2022/01/15 10:40:05;;;;;;;10.18;5.63;;;6.90;98.40;;;;;;5065832;28;20063;-62
2022/01/15 10:42:33;;;;;;;10.18;5.78;;;7.00;98.20;;;;;;5066240;27;20057;-62
2022/01/15 10:45:08;;;;;;;10.73;6.10;;;7.00;98.10;;;;;;5064307;27;20188;-62
2022/01/15 10:47:42;;;;;;;13.15;5.97;;;7.00;98.10;;;;;;5065966;28;20049;-62
2022/01/15 10:50:09;;;;;;;;;;;6.90;98.00;;;;;;5065585;28;20809;-62
2022/01/15 10:52:36;;;;;;;13.80;7.53;;;6.80;97.90;;;;;;5063991;28;19971;-62
2022/01/15 10:55:08;;;;;;;12.25;6.60;;;6.80;98.10;;;;;;5065395;28;21138;-62
2022/01/15 10:57:37;;;;;;;11.88;6.30;;;6.70;98.20;;;;;;5065462;27;20143;-62
2022/01/15 11:00:15;;;;;;;10.80;6.13;;;6.60;98.40;;;;;;5063661;28;20049;-62
2022/01/15 11:02:44;;;;;;;13.15;6.55;;;6.60;98.50;;;;;;5065313;28;20059;-62
2022/01/15 11:05:22;;;;;;;14.00;6.78;;;6.70;98.50;;;;;;5065269;28;20672;-63
2022/01/15 11:07:49;;;;;;;12.95;7.00;;;6.60;98.60;;;;;;5064450;28;20143;-62
2022/01/15 11:10:16;;;;;;;11.90;6.35;;;6.60;98.70;;;;;;5062018;27;20053;-62
2022/01/15 11:12:43;;;;;;;13.80;7.45;;;6.60;98.70;;;;;;5063288;28;20053;-63
2022/01/15 11:15:11;;;;;;;14.07;7.38;;;6.70;98.80;;;;;;5063029;27;20049;-62
2022/01/15 11:17:41;;;;;;;14.88;8.00;;;6.70;99.00;;;;;;5065375;28;20064;-62
2022/01/15 11:20:11;;;;;;;15.32;8.70;;;6.70;98.60;;;;;;5065251;28;20059;-62
2022/01/15 11:22:38;;;;;;;15.90;8.15;;;6.70;98.60;;;;;;5062181;27;20167;-62
2022/01/15 11:25:06;;;;;;;16.88;9.40;;;6.70;98.50;;;;;;5063795;28;20045;-62
2022/01/15 11:27:34;;;;;;;17.73;9.18;;;6.60;98.40;;;;;;5064037;28;20045;-62
2022/01/15 11:30:02;;;;;;;17.38;9.52;;;6.70;98.40;;;;;;5063945;28;20064;-62
2022/01/15 11:32:30;;;;;;;15.10;8.48;;;6.60;98.40;;;;;;5064097;28;20049;-62
2022/01/15 11:35:05;;;;;;;15.18;9.35;;;6.60;98.40;;;;;;5063517;28;20044;-62
2022/01/15 11:37:46;;;;;;;13.68;7.75;;;6.60;98.30;;;;;;5062772;27;20171;-62
2022/01/15 11:40:46;;;;;;;15.25;8.70;;;6.80;98.10;;;;;;5063826;27;20059;-63
2022/01/15 11:43:39;;;;;;;16.77;9.48;;;6.80;98.00;;;;;;5062134;28;20065;-62
2022/01/15 11:46:23;;;;;;;14.35;8.20;;;6.90;97.90;;;;;;5064878;28;20202;-62
2022/01/15 11:48:52;;;;;;;14.38;8.48;;;6.90;97.70;;;;;;5064408;28;20064;-62
2022/01/15 11:51:28;;;;;;;14.32;8.38;;;7.00;97.60;;;;;;5063485;28;20514;-61
2022/01/15 11:53:59;;;;;;;15.68;8.77;;;7.10;97.20;;;;;;5064319;28;20049;-62
2022/01/15 11:56:27;;;;;;;15.82;9.10;;;7.00;97.00;;;;;;5064870;27;20468;-62
2022/01/15 11:58:56;;;;;;;13.88;8.43;;;6.90;96.90;;;;;;5064218;28;20123;-62
2022/01/15 12:01:41;;;;;;;14.35;8.18;;;6.90;97.00;;;;;;5064373;28;20057;-62
2022/01/15 12:04:27;;;;;;;16.70;8.98;;;6.90;97.10;;;;;;5063716;28;20608;-61
2022/01/15 12:07:20;;;;;;;16.90;9.45;;;6.80;97.20;;;;;;5064836;28;20511;-61
2022/01/15 12:09:48;;;;;;;20.67;10.75;;;6.70;97.30;;;;;;5063861;28;20053;-62
2022/01/15 12:12:48;;;;;;;18.15;10.60;;;6.60;97.60;;;;;;5063778;28;20053;-62
2022/01/15 12:15:19;;;;;;;20.33;11.20;;;6.60;97.80;;;;;;5061108;28;20061;-62
2022/01/15 12:17:47;;;;;;;15.30;9.65;;;6.50;98.10;;;;;;5064066;28;20075;-61
2022/01/15 12:20:36;;;;;;;16.75;9.88;;;6.50;98.20;;;;;;5063563;28;20053;-62
2022/01/15 12:23:06;;;;;;;18.50;10.38;;;6.50;98.30;;;;;;5065129;27;20161;-61
2022/01/15 12:25:35;;;;;;;20.48;10.82;;;6.40;98.50;;;;;;5067833;27;20052;-62
2022/01/15 12:28:03;;;;;;;17.67;10.38;;;6.40;98.80;;;;;;5066822;28;20048;-61
2022/01/15 12:30:32;;;;;;;15.10;10.02;;;6.40;98.80;;;;;;5067639;28;20098;-62
2022/01/15 12:33:01;;;;;;;16.60;9.52;;;6.40;98.80;;;;;;5066796;28;20056;-64
2022/01/15 12:35:29;;;;;;;18.30;10.40;;;6.50;98.70;;;;;;5066971;28;20059;-62
2022/01/15 12:38:03;;;;;;;14.48;8.73;;;6.50;98.60;;;;;;5067662;28;20067;-62
2022/01/15 12:40:33;;;;;;;13.52;8.65;;;6.60;98.60;;;;;;5066787;28;20048;-61
2022/01/15 12:43:02;;;;;;;14.82;9.00;;;6.60;98.20;;;;;;5067016;27;20045;-61
2022/01/15 12:45:30;;;;;;;12.27;7.72;;;6.70;98.20;;;;;;5066750;28;20053;-62
2022/01/15 12:47:57;;;;;;;14.48;8.68;;;6.70;97.80;;;;;;5066377;28;20051;-62
2022/01/15 12:50:25;;;;;;;15.48;9.35;;;6.80;97.80;;;;;;5067554;28;20415;-62
2022/01/15 12:53:04;;;;;;;13.77;8.95;;;6.80;97.80;;;;;;5067495;28;20055;-61
2022/01/15 12:55:33;;;;;;;13.77;8.38;;;6.80;97.80;;;;;;5067050;27;20112;-62
2022/01/15 12:58:02;;;;;;;19.45;8.88;;;6.80;97.70;;;;;;5067568;28;20079;-61
2022/01/15 13:00:31;;;;;;;14.80;9.27;;;6.80;97.60;;;;;;5066928;28;20136;-61
2022/01/15 13:02:59;;;;;;;15.35;9.40;;;6.70;97.50;;;;;;5065931;28;20052;-61
2022/01/15 13:05:28;;;;;;;19.50;10.27;;;6.70;97.70;;;;;;5066915;28;20443;-61
2022/01/15 13:07:57;;;;;;;18.58;10.65;;;6.60;97.60;;;;;;5065350;28;20060;-62
2022/01/15 13:10:49;;;;;;;17.17;10.30;;;6.60;97.80;;;;;;5064582;28;20052;-61
2022/01/15 13:13:27;;;;;;;17.10;10.10;;;6.60;98.10;;;;;;5066431;28;20059;-62
2022/01/15 13:16:04;;;;;;;19.13;10.95;;;6.50;98.20;;;;;;5067041;28;20498;-61